Time;durP1;ratioP1;P1;durP2;ratioP2;P2;SDS_P1;SDS_P2;PMS_P1;PMS_P2;Temp;Humidity;BMP_temperature;BMP_pressure;BME280_temperature;BME280_humidity;BME280_pressure;Samples;Min_cycle;Max_cycle;Signal;HPM_P1;HPM_P2
2021/05/15 00:09:08;;;;;;;0.20;0.20;;;14.50;99.90;;;;;;20618608;28;20334;-70
2021/05/15 00:19:11;;;;;;;0.47;0.20;;;14.50;99.90;;;;;;20619358;28;20192;-71
2021/05/15 00:29:13;;;;;;;0.97;0.30;;;14.70;99.90;;;;;;20578758;28;20230;-70
2021/05/15 00:39:15;;;;;;;0.20;0.00;;;14.90;99.90;;;;;;20577857;28;20200;-72
2021/05/15 00:49:20;;;;;;;0.20;0.20;;;15.00;99.90;;;;;;20576186;28;20855;-72
2021/05/15 00:59:23;;;;;;;0.20;0.00;;;15.10;99.90;;;;;;20585362;23;20198;-71
2021/05/15 01:09:25;;;;;;;0.33;0.10;;;15.00;99.90;;;;;;20726310;28;20754;-71
2021/05/15 01:19:28;;;;;;;0.30;0.20;;;14.90;99.90;;;;;;20735911;28;20640;-70
2021/05/15 01:29:30;;;;;;;4.53;1.03;;;14.90;99.90;;;;;;20693154;28;20222;-71
2021/05/15 01:39:32;;;;;;;0.20;0.07;;;14.50;99.90;;;;;;20692060;28;20203;-72
2021/05/15 01:49:35;;;;;;;0.20;0.10;;;14.40;99.90;;;;;;20689466;28;20680;-72
2021/05/15 01:59:37;;;;;;;0.20;0.20;;;13.80;99.90;;;;;;20691081;22;20496;-70
2021/05/15 02:09:40;;;;;;;0.23;0.10;;;13.60;99.90;;;;;;20772898;28;20371;-71
2021/05/15 02:19:42;;;;;;;0.50;0.50;;;13.70;99.90;;;;;;20757372;28;20194;-71
2021/05/15 02:29:45;;;;;;;0.20;0.10;;;13.70;99.90;;;;;;20759867;28;20225;-71
2021/05/15 02:39:46;;;;;;;0.20;0.10;;;13.80;99.90;;;;;;20776643;28;20836;-70
2021/05/15 02:49:50;;;;;;;0.20;0.20;;;13.80;99.90;;;;;;20788679;28;20217;-69
2021/05/15 02:59:51;;;;;;;0.20;0.10;;;13.60;99.90;;;;;;20803091;22;20664;-69
2021/05/15 03:09:54;;;;;;;5.90;0.40;;;13.90;99.90;;;;;;20784231;28;20222;-72
2021/05/15 03:19:56;;;;;;;0.20;0.00;;;13.80;99.90;;;;;;20766247;28;20186;-72
2021/05/15 03:29:59;;;;;;;0.20;0.10;;;13.70;99.90;;;;;;20784360;28;20410;-70
2021/05/15 03:40:01;;;;;;;0.33;0.20;;;13.70;99.90;;;;;;20797333;28;20233;-71
2021/05/15 03:50:04;;;;;;;0.20;0.20;;;13.80;99.90;;;;;;20864535;28;20236;-70
2021/05/15 04:00:08;;;;;;;0.20;0.20;;;13.70;99.90;;;;;;20843153;22;20222;-70
2021/05/15 04:10:12;;;;;;;8.13;0.83;;;13.50;99.90;;;;;;20701735;28;20650;-70
2021/05/15 04:20:14;;;;;;;10.83;0.60;;;13.60;99.90;;;;;;20698282;28;20671;-71
2021/05/15 04:30:18;;;;;;;0.20;0.20;;;13.60;99.90;;;;;;20701082;28;20561;-71
2021/05/15 04:40:20;;;;;;;0.70;0.60;;;13.70;99.90;;;;;;20729459;28;20198;-71
2021/05/15 04:50:23;;;;;;;9.03;1.03;;;14.40;99.90;;;;;;20787134;28;20217;-71
2021/05/15 05:00:25;;;;;;;0.83;0.57;;;14.90;99.90;;;;;;20779159;28;20234;-72
2021/05/15 05:10:28;;;;;;;0.20;0.10;;;14.90;99.90;;;;;;20700695;28;20238;-72
2021/05/15 05:20:30;;;;;;;0.30;0.30;;;15.10;99.90;;;;;;20694895;28;20779;-72
2021/05/15 05:30:33;;;;;;;0.60;0.50;;;15.20;99.90;;;;;;20696795;28;20230;-72
2021/05/15 05:40:35;;;;;;;0.20;0.17;;;15.30;99.90;;;;;;20713152;28;20228;-72
2021/05/15 05:50:38;;;;;;;0.67;0.50;;;15.30;99.90;;;;;;20775401;28;20222;-72
2021/05/15 06:00:40;;;;;;;0.30;0.20;;;15.30;99.90;;;;;;20773017;28;20234;-71
2021/05/15 06:10:43;;;;;;;0.40;0.17;;;15.40;99.90;;;;;;20788003;28;20225;-72
2021/05/15 06:20:46;;;;;;;0.20;0.10;;;15.70;99.90;;;;;;20792774;28;20205;-71
2021/05/15 06:30:49;;;;;;;0.93;0.63;;;16.10;99.90;;;;;;20770299;28;20229;-71
2021/05/15 06:40:51;;;;;;;0.20;0.00;;;16.60;99.90;;;;;;20767309;28;20667;-70
2021/05/15 06:50:53;;;;;;;0.30;0.30;;;17.10;99.90;;;;;;20704692;28;20226;-69
2021/05/15 07:00:55;;;;;;;0.20;0.10;;;17.30;99.90;;;;;;20687610;28;20234;-70
2021/05/15 07:11:00;;;;;;;0.20;0.10;;;17.10;99.90;;;;;;20701655;28;20215;-72
2021/05/15 07:21:02;;;;;;;0.50;0.50;;;17.20;99.90;;;;;;20704562;28;20423;-70
2021/05/15 07:31:05;;;;;;;8.67;0.90;;;17.30;99.90;;;;;;20701294;28;20203;-72
2021/05/15 07:41:07;;;;;;;0.50;0.33;;;17.40;99.90;;;;;;20726711;28;20225;-71
2021/05/15 07:51:11;;;;;;;0.20;0.20;;;17.60;99.90;;;;;;20782148;28;20260;-71
2021/05/15 08:01:13;;;;;;;1.23;1.17;;;17.80;99.90;;;;;;20772083;28;20245;-69
2021/05/15 08:11:17;;;;;;;0.73;0.67;;;18.30;99.90;;;;;;20698155;28;20524;-68
2021/05/15 08:21:19;;;;;;;0.40;0.40;;;18.60;99.90;;;;;;20681784;28;20282;-70
2021/05/15 08:31:23;;;;;;;12.60;1.30;;;18.90;99.90;;;;;;20695366;28;20187;-68
2021/05/15 08:41:25;;;;;;;0.47;0.47;;;19.20;99.90;;;;;;20688003;28;20924;-68
2021/05/15 08:51:27;;;;;;;0.20;0.20;;;18.80;99.90;;;;;;20652696;28;20594;-69
2021/05/15 09:01:30;;;;;;;1.30;0.63;;;18.80;99.90;;;;;;20650586;28;20538;-69
2021/05/15 09:11:33;;;;;;;0.20;0.20;;;19.00;99.90;;;;;;20608869;28;20204;-68
2021/05/15 09:21:36;;;;;;;0.30;0.30;;;19.00;99.90;;;;;;20652109;28;20222;-66
2021/05/15 09:31:45;;;;;;;0.20;0.20;;;19.20;99.90;;;;;;20617672;28;20207;-67
2021/05/15 09:41:52;;;;;;;0.60;0.40;;;19.40;99.90;;;;;;20702864;28;20221;-66
2021/05/15 09:51:58;;;;;;;1.60;0.70;;;20.00;99.90;;;;;;20773505;28;20198;-66
2021/05/15 10:02:03;;;;;;;0.40;0.30;;;19.50;99.90;;;;;;20740547;28;20395;-65
2021/05/15 10:12:08;;;;;;;0.20;0.10;;;19.80;99.90;;;;;;20685705;28;20237;-67
2021/05/15 10:22:11;;;;;;;0.30;0.23;;;20.10;99.90;;;;;;20689273;28;20229;-67
2021/05/15 10:32:24;;;;;;;0.50;0.37;;;20.10;99.90;;;;;;20697605;28;20226;-65
2021/05/15 10:42:29;;;;;;;0.80;0.50;;;20.00;99.90;;;;;;20713484;28;20440;-67
2021/05/15 10:52:33;;;;;;;0.57;0.50;;;20.40;99.90;;;;;;20679286;28;20198;-68
2021/05/15 11:02:38;;;;;;;1.80;1.33;;;20.20;99.90;;;;;;20704366;28;20261;-66
2021/05/15 11:12:44;;;;;;;0.87;0.50;;;20.60;99.90;;;;;;20707081;28;20488;-66
2021/05/15 11:22:48;;;;;;;6.03;1.23;;;21.30;99.90;;;;;;20684038;28;20652;-67
2021/05/15 11:33:01;;;;;;;0.53;0.37;;;22.00;99.90;;;;;;20703691;28;20249;-66
2021/05/15 11:43:04;;;;;;;0.57;0.57;;;21.40;99.90;;;;;;20741565;28;20236;-67
2021/05/15 11:53:09;;;;;;;2.73;1.33;;;20.70;99.90;;;;;;20712876;28;20183;-67
2021/05/15 12:03:12;;;;;;;1.10;0.50;;;21.50;99.90;;;;;;20675309;28;20557;-68
2021/05/15 12:13:16;;;;;;;0.30;0.30;;;22.40;99.90;;;;;;20618360;28;20191;-65
2021/05/15 12:23:21;;;;;;;4.90;0.67;;;21.60;99.90;;;;;;20598691;28;20246;-65
2021/05/15 12:33:27;;;;;;;0.30;0.15;;;23.50;99.90;;;;;;20597214;28;20192;-62
2021/05/15 12:43:30;;;;;;;0.43;0.38;;;23.10;99.90;;;;;;20634993;28;20632;-64
2021/05/15 12:53:34;;;;;;;0.98;0.43;;;23.80;99.90;;;;;;20648142;28;20204;-66
2021/05/15 13:03:40;;;;;;;2.73;0.60;;;23.10;99.90;;;;;;20614408;28;20637;-69
2021/05/15 13:13:46;;;;;;;0.30;0.30;;;22.90;99.90;;;;;;20603272;28;20788;-67
2021/05/15 13:23:49;;;;;;;1.27;1.17;;;22.90;99.90;;;;;;20644200;28;20711;-65
2021/05/15 13:33:53;;;;;;;0.30;0.22;;;22.50;99.90;;;;;;20695710;28;20758;-64
2021/05/15 13:43:56;;;;;;;6.40;0.32;;;23.70;99.90;;;;;;20672360;28;20229;-66
2021/05/15 13:54:04;;;;;;;5.25;0.43;;;23.50;99.90;;;;;;20676254;28;20245;-66
2021/05/15 14:04:13;;;;;;;0.50;0.50;;;24.10;99.90;;;;;;20690783;28;20296;-63
2021/05/15 14:14:17;;;;;;;0.65;0.40;;;23.70;99.90;;;;;;20676178;28;21300;-62
2021/05/15 14:24:20;;;;;;;25.98;1.15;;;22.60;99.90;;;;;;20684067;28;20219;-66
2021/05/15 14:34:24;;;;;;;0.75;0.45;;;24.40;99.90;;;;;;20638311;28;20494;-67
2021/05/15 14:44:28;;;;;;;5.22;1.45;;;25.00;99.90;;;;;;20697251;28;20664;-65
2021/05/15 14:54:32;;;;;;;1.17;0.20;;;25.20;99.90;;;;;;20673469;28;20298;-65
2021/05/15 15:04:35;;;;;;;0.60;0.60;;;24.90;99.90;;;;;;20714279;28;20242;-64
2021/05/15 15:14:39;;;;;;;0.68;0.40;;;23.90;99.90;;;;;;20680411;28;20223;-67
2021/05/15 15:24:43;;;;;;;0.40;0.27;;;22.80;99.90;;;;;;20648756;28;20273;-68
2021/05/15 15:34:47;;;;;;;0.55;0.35;;;23.50;99.90;;;;;;20687024;28;20229;-67
2021/05/15 15:44:50;;;;;;;0.30;0.20;;;23.40;99.90;;;;;;20702599;28;20219;-70
2021/05/15 15:54:54;;;;;;;1.30;0.95;;;25.60;99.90;;;;;;20702789;28;20459;-65
2021/05/15 16:04:57;;;;;;;0.20;0.13;;;25.00;99.90;;;;;;20704652;28;20227;-68
2021/05/15 16:15:05;;;;;;;0.73;0.57;;;23.90;99.90;;;;;;20699638;28;20285;-65
2021/05/15 16:25:09;;;;;;;0.27;0.17;;;24.20;99.90;;;;;;20679042;28;20257;-66
2021/05/15 16:35:14;;;;;;;0.73;0.27;;;22.30;99.90;;;;;;20699195;28;20198;-65
2021/05/15 16:45:17;;;;;;;1.17;0.87;;;21.20;99.90;;;;;;20753862;28;20222;-63
2021/05/15 16:55:22;;;;;;;0.30;0.20;;;20.80;99.90;;;;;;20778292;28;20198;-65
2021/05/15 17:05:25;;;;;;;10.70;1.17;;;22.80;99.90;;;;;;20727406;28;20238;-69
2021/05/15 17:15:29;;;;;;;0.40;0.10;;;23.00;99.90;;;;;;20693305;28;20209;-67
2021/05/15 17:25:33;;;;;;;0.20;0.20;;;22.10;99.90;;;;;;20694563;28;20589;-63
2021/05/15 17:35:37;;;;;;;0.27;0.13;;;20.90;99.90;;;;;;20693562;28;20226;-67
2021/05/15 17:45:40;;;;;;;0.37;0.37;;;21.40;99.90;;;;;;20754948;28;20633;-65
2021/05/15 17:55:45;;;;;;;0.23;0.20;;;21.70;99.90;;;;;;20773899;28;20206;-66
2021/05/15 18:05:48;;;;;;;0.73;0.33;;;21.80;99.90;;;;;;20692938;28;20239;-65
2021/05/15 18:15:54;;;;;;;0.40;0.40;;;20.50;99.90;;;;;;20649687;28;20199;-65
2021/05/15 18:25:59;;;;;;;1.00;0.90;;;20.40;99.90;;;;;;20608471;28;20277;-65
2021/05/15 18:36:04;;;;;;;0.20;0.10;;;20.00;99.90;;;;;;20589821;28;20206;-66
2021/05/15 18:46:07;;;;;;;0.57;0.30;;;19.10;99.90;;;;;;20640460;28;20977;-66
2021/05/15 18:56:11;;;;;;;0.30;0.30;;;19.20;99.90;;;;;;20646587;28;20198;-66
2021/05/15 19:06:15;;;;;;;4.47;1.03;;;18.80;99.90;;;;;;20665918;28;20230;-66
2021/05/15 19:16:21;;;;;;;3.33;0.60;;;19.00;99.90;;;;;;20710650;28;20202;-66
2021/05/15 19:26:29;;;;;;;0.47;0.47;;;18.90;99.90;;;;;;20686342;28;20234;-66
2021/05/15 19:36:36;;;;;;;1.70;1.57;;;19.00;99.90;;;;;;20696502;28;20653;-66
2021/05/15 19:46:39;;;;;;;11.57;0.83;;;19.10;99.90;;;;;;20758533;28;20300;-66
2021/05/15 19:56:43;;;;;;;0.60;0.60;;;18.50;99.90;;;;;;20783256;28;20499;-67
2021/05/15 20:06:46;;;;;;;0.20;0.20;;;18.50;99.90;;;;;;20640587;28;20231;-68
2021/05/15 20:16:50;;;;;;;1.53;1.13;;;18.30;99.90;;;;;;20602296;28;20263;-67
2021/05/15 20:26:53;;;;;;;6.23;1.07;;;18.40;99.90;;;;;;20617842;28;20220;-66
2021/05/15 20:36:57;;;;;;;3.20;1.17;;;18.60;99.90;;;;;;20618047;28;20297;-66
2021/05/15 20:47:01;;;;;;;0.43;0.37;;;18.40;99.90;;;;;;20758699;28;20261;-67
2021/05/15 20:57:06;;;;;;;0.73;0.40;;;18.10;99.90;;;;;;20777037;28;20287;-66
2021/05/15 21:07:09;;;;;;;0.23;0.20;;;18.00;99.90;;;;;;20776353;28;20234;-66
2021/05/15 21:17:13;;;;;;;0.50;0.47;;;17.90;99.90;;;;;;20671750;28;20226;-66
2021/05/15 21:27:16;;;;;;;1.43;0.60;;;17.80;99.90;;;;;;20624183;28;20702;-65
2021/05/15 21:37:20;;;;;;;0.53;0.53;;;17.90;99.90;;;;;;20649308;28;20230;-66
2021/05/15 21:47:23;;;;;;;0.30;0.20;;;17.90;99.90;;;;;;20637446;28;20215;-66
2021/05/15 21:57:27;;;;;;;0.30;0.30;;;18.00;99.90;;;;;;20647814;28;20853;-67
2021/05/15 22:07:30;;;;;;;1.23;1.13;;;18.00;99.90;;;;;;20675224;28;20240;-68
2021/05/15 22:17:34;;;;;;;7.07;0.50;;;18.10;99.90;;;;;;20675230;28;20195;-69
2021/05/15 22:27:38;;;;;;;0.30;0.27;;;17.90;99.90;;;;;;20615880;28;20230;-69
2021/05/15 22:37:42;;;;;;;1.23;0.50;;;18.00;99.90;;;;;;20621895;28;20195;-70
2021/05/15 22:47:45;;;;;;;0.57;0.57;;;18.10;99.90;;;;;;20655716;28;20250;-67
2021/05/15 22:57:49;;;;;;;0.30;0.30;;;18.10;99.90;;;;;;20650436;28;20438;-68
2021/05/15 23:07:53;;;;;;;1.50;0.43;;;17.70;99.90;;;;;;20663275;28;20584;-69
2021/05/15 23:17:59;;;;;;;1.80;1.00;;;17.20;99.90;;;;;;20661423;28;20727;-69
2021/05/15 23:28:02;;;;;;;0.30;0.30;;;17.10;99.90;;;;;;20695059;28;21108;-69
2021/05/15 23:38:06;;;;;;;0.80;0.77;;;16.90;99.90;;;;;;20703307;28;20233;-69
2021/05/15 23:48:10;;;;;;;0.20;0.10;;;16.70;99.90;;;;;;20780251;28;20221;-68
2021/05/15 23:58:14;;;;;;;3.87;1.37;;;16.70;99.90;;;;;;20784449;28;20916;-68
